createdAt,value
2019-05-01T00:00:38.353Z,73.08
2019-05-01T00:01:38.372Z,73.66
2019-05-01T00:02:53.056Z,74.32
2019-05-01T00:03:38.412Z,74.13
2019-05-01T00:04:38.427Z,75.09
2019-05-01T00:05:38.447Z,74.52
2019-05-01T00:06:38.228Z,74.23
2019-05-01T00:07:38.491Z,72.89
2019-05-01T00:08:38.513Z,73.08
2019-05-01T00:09:38.529Z,73.75
2019-05-01T00:10:38.549Z,72.8
2019-05-01T00:11:38.569Z,71.66
2019-05-01T00:12:38.590Z,71.66
2019-05-01T00:13:38.609Z,71.66
2019-05-01T00:14:38.632Z,72.8
2019-05-01T00:15:38.664Z,72.71
2019-05-01T00:16:38.673Z,72.99
2019-05-01T00:17:38.696Z,73.37
2019-05-01T00:18:53.374Z,74.71
2019-05-01T00:19:38.731Z,74.52
2019-05-01T00:20:38.750Z,74.8
2019-05-01T00:21:38.770Z,74.99
2019-05-01T00:23:38.811Z,74.52
2019-05-01T00:24:38.834Z,74.52
2019-05-01T00:25:38.857Z,75.09
2019-05-01T00:26:38.870Z,75.28
2019-05-01T00:27:38.893Z,74.71
2019-05-01T00:28:38.913Z,74.8
2019-05-01T00:29:38.935Z,74.71
2019-05-01T00:31:38.975Z,75.66
2019-05-01T00:32:38.994Z,76.04
2019-05-01T00:33:39.014Z,76.42
2019-05-01T00:34:53.696Z,76.33
2019-05-01T00:35:39.052Z,76.33
2019-05-01T00:36:39.071Z,76.71
2019-05-01T00:37:39.105Z,77.28
2019-05-01T00:38:39.119Z,76.71
2019-05-01T00:39:39.135Z,76.52
2019-05-01T00:40:39.156Z,76.33
2019-05-01T00:41:39.172Z,76.23
2019-05-01T00:42:39.193Z,75.66
2019-05-01T00:43:39.214Z,75.28
2019-05-01T00:44:38.989Z,75.28
2019-05-01T00:46:39.377Z,75.66
2019-05-01T00:47:39.335Z,75.66
2019-05-01T00:48:39.314Z,76.81
2019-05-01T00:49:53.999Z,76.33
2019-05-01T00:50:39.365Z,76.52
2019-05-01T00:51:39.376Z,76.23
2019-05-01T00:52:39.399Z,76.33
2019-05-01T00:53:39.415Z,76.42
2019-05-01T00:54:39.434Z,76.23
2019-05-01T00:55:39.460Z,76.33
2019-05-01T00:56:39.475Z,76.81
2019-05-01T00:57:39.496Z,76.33
2019-05-01T00:58:39.520Z,76.14
2019-05-01T00:59:39.536Z,77
2019-05-01T01:00:45.787Z,77.47
2019-05-01T01:01:39.580Z,77.57
2019-05-01T01:02:39.599Z,77.38
2019-05-01T01:03:39.620Z,77.67
2019-05-01T01:04:39.641Z,77.38
2019-05-01T01:05:39.657Z,77.67
2019-05-01T01:06:39.676Z,77.86
2019-05-01T01:07:39.696Z,77.38
2019-05-01T01:08:39.717Z,77.47
2019-05-01T01:09:39.736Z,77.67
2019-05-01T01:10:39.757Z,77.57
2019-05-01T01:11:39.778Z,78.62
2019-05-01T01:12:39.801Z,78.23
2019-05-01T01:13:39.821Z,78.72
2019-05-01T01:14:39.837Z,78.43
2019-05-01T01:15:39.863Z,78.52
2019-05-01T01:16:39.881Z,78.72
2019-05-01T01:17:39.901Z,78.05
2019-05-01T01:19:39.938Z,77.95
2019-05-01T01:20:39.960Z,78.23
2019-05-01T01:21:54.642Z,78.52
2019-05-01T01:22:40.000Z,79
2019-05-01T01:23:40.022Z,79.1
2019-05-01T01:24:40.038Z,79.38
2019-05-01T01:25:40.059Z,79.67
2019-05-01T01:26:40.082Z,79.96
2019-05-01T01:27:40.106Z,80.15
2019-05-01T01:28:40.121Z,79.57
2019-05-01T01:29:40.140Z,80.33
2019-05-01T01:31:40.181Z,80.72
2019-05-01T01:32:40.201Z,81.29
2019-05-01T01:33:40.222Z,82.06
2019-05-01T01:34:40.245Z,82.34
2019-05-01T01:35:40.261Z,83.39
2019-05-01T01:36:40.285Z,83.39
2019-05-01T01:37:54.965Z,84.06
2019-05-01T01:38:40.321Z,83.87
2019-05-01T01:39:40.343Z,83.39
2019-05-01T01:40:40.360Z,84.34
2019-05-01T01:41:40.381Z,83.96
2019-05-01T01:42:40.400Z,83.96
2019-05-01T01:43:40.420Z,84.53
2019-05-01T01:44:40.440Z,85.15
2019-05-01T01:45:40.461Z,85.72
2019-05-01T01:46:40.484Z,85.68
2019-05-01T01:47:40.501Z,86.58
2019-05-01T01:48:40.521Z,86.77
2019-05-01T01:49:40.545Z,86.87
2019-05-01T01:51:40.582Z,88.64
2019-05-01T01:52:40.602Z,90.21
2019-05-01T01:53:55.288Z,90.83
2019-05-01T01:54:40.643Z,91.78
2019-05-01T01:55:40.663Z,93.31
2019-05-01T01:56:40.682Z,93.98
2019-05-01T01:57:40.701Z,95.41
2019-05-01T01:58:40.721Z,96.27
2019-05-01T01:59:40.742Z,96.75
2019-05-01T02:00:40.788Z,95.7
2019-05-01T02:01:40.783Z,96.17
2019-05-01T02:02:40.802Z,96.94
2019-05-01T02:03:40.823Z,97.89
2019-05-01T02:04:40.841Z,97.89
2019-05-01T02:05:40.863Z,98.18
2019-05-01T02:06:40.884Z,98.56
2019-05-01T02:07:40.657Z,99.42
2019-05-01T02:08:40.922Z,99.99
2019-05-01T02:09:55.606Z,99.99
2019-05-01T02:10:45.545Z,99.99
2019-05-01T02:11:40.983Z,99.99
2019-05-01T02:12:41.004Z,99.99
2019-05-01T02:13:41.022Z,99.99
2019-05-01T02:14:41.045Z,99.99
2019-05-01T02:15:41.061Z,99.99
2019-05-01T02:16:41.081Z,99.99
2019-05-01T02:17:41.101Z,99.99
2019-05-01T02:18:41.122Z,99.99
2019-05-01T02:19:40.893Z,99.99
2019-05-01T02:20:41.162Z,99.99
2019-05-01T02:21:41.184Z,99.99
2019-05-01T02:22:41.219Z,99.99
2019-05-01T02:23:41.224Z,99.99
2019-05-01T02:24:55.907Z,99.99
2019-05-01T02:25:41.308Z,99.99
2019-05-01T02:26:41.287Z,99.99
2019-05-01T02:27:41.301Z,99.99
2019-05-01T02:28:41.328Z,99.99
2019-05-01T02:29:41.342Z,99.99
2019-05-01T02:30:41.373Z,99.99
2019-05-01T02:31:41.381Z,99.99
2019-05-01T02:32:41.404Z,99.99
2019-05-01T02:33:41.423Z,99.99
2019-05-01T02:34:41.451Z,99.99
2019-05-01T02:35:41.466Z,99.99
2019-05-01T02:36:41.486Z,99.99
2019-05-01T02:37:41.512Z,99.99
2019-05-01T02:38:41.523Z,99.99
2019-05-01T02:39:41.555Z,99.99
2019-05-01T02:40:41.566Z,99.99
2019-05-01T02:41:44.065Z,99.99
2019-05-01T02:42:41.602Z,99.99
2019-05-01T02:43:41.631Z,99.99
2019-05-01T02:44:41.644Z,99.99
2019-05-01T02:45:41.663Z,99.99
2019-05-01T02:46:41.681Z,99.99
2019-05-01T02:47:41.717Z,99.99
2019-05-01T02:48:41.725Z,99.99
2019-05-01T02:49:41.744Z,99.99
2019-05-01T02:50:41.763Z,99.99
2019-05-01T02:51:41.793Z,99.99
2019-05-01T02:52:41.803Z,99.99
2019-05-01T02:53:41.823Z,99.99
2019-05-01T02:54:41.841Z,99.99
2019-05-01T02:55:41.860Z,99.99
2019-05-01T02:56:56.545Z,99.99
2019-05-01T02:57:41.905Z,99.99
2019-05-01T02:58:41.963Z,99.99
2019-05-01T02:59:41.947Z,99.99
2019-05-01T03:00:41.966Z,99.99
2019-05-01T03:01:50.032Z,99.99
2019-05-01T03:02:42.041Z,99.99
2019-05-01T03:03:42.031Z,99.99
2019-05-01T03:04:42.043Z,99.99
2019-05-01T03:05:42.063Z,99.99
2019-05-01T03:06:42.091Z,99.99
2019-05-01T03:07:42.103Z,99.99
2019-05-01T03:08:42.125Z,99.99
2019-05-01T03:09:42.148Z,99.99
2019-05-01T03:10:42.161Z,99.99
2019-05-01T03:11:42.245Z,99.99
2019-05-01T03:12:56.869Z,99.99
2019-05-01T03:13:42.224Z,99.99
2019-05-01T03:14:42.247Z,99.99
2019-05-01T03:15:42.272Z,99.99
2019-05-01T03:16:42.281Z,99.99
2019-05-01T03:17:42.303Z,99.99
2019-05-01T03:18:42.319Z,99.99
2019-05-01T03:19:42.359Z,99.99
2019-05-01T03:20:42.363Z,99.99
2019-05-01T03:21:42.380Z,99.99
2019-05-01T03:22:42.403Z,99.99
2019-05-01T03:23:42.426Z,99.99
2019-05-01T03:25:42.461Z,99.99
2019-05-01T03:26:42.249Z,99.99
2019-05-01T03:27:42.520Z,99.99
2019-05-01T03:28:57.182Z,99.99
2019-05-01T03:29:42.540Z,99.99
2019-05-01T03:30:42.567Z,99.99
2019-05-01T03:31:42.593Z,99.99
2019-05-01T03:32:42.600Z,99.99
2019-05-01T03:33:42.641Z,99.99
2019-05-01T03:34:42.670Z,99.99
2019-05-01T03:35:42.753Z,99.99
2019-05-01T03:36:42.680Z,99.99
2019-05-01T03:37:42.705Z,99.99
2019-05-01T03:38:42.733Z,99.99
2019-05-01T03:39:42.741Z,99.99
2019-05-01T03:40:42.766Z,99.99
2019-05-01T03:41:42.879Z,99.99
2019-05-01T03:42:42.800Z,99.99
2019-05-01T03:43:42.829Z,99.99
2019-05-01T03:44:57.507Z,99.99
2019-05-01T03:45:42.855Z,99.99
2019-05-01T03:46:42.888Z,99.99
2019-05-01T03:47:42.898Z,99.99
2019-05-01T03:48:42.922Z,99.99
2019-05-01T03:49:42.973Z,99.99
2019-05-01T03:50:46.349Z,99.99
2019-05-01T03:51:42.986Z,99.99
2019-05-01T03:52:42.995Z,99.99
2019-05-01T03:53:43.027Z,99.99
2019-05-01T03:54:43.037Z,99.99
2019-05-01T03:55:43.054Z,99.99
2019-05-01T03:56:43.089Z,99.99
2019-05-01T03:58:43.119Z,99.99
2019-05-01T03:59:57.799Z,99.99
2019-05-01T04:00:43.170Z,99.99
2019-05-01T04:01:43.173Z,99.99
2019-05-01T04:02:43.205Z,99.99
2019-05-01T04:03:43.213Z,99.99
2019-05-01T04:04:43.243Z,99.99
2019-05-01T04:05:43.264Z,99.99
2019-05-01T04:06:43.290Z,99.99
2019-05-01T04:07:43.307Z,99.99
2019-05-01T04:08:43.312Z,99.99
2019-05-01T04:09:43.344Z,99.99
2019-05-01T04:10:43.375Z,99.99
2019-05-01T04:11:43.376Z,99.99
2019-05-01T04:12:43.501Z,99.99
2019-05-01T04:13:43.414Z,99.99
2019-05-01T04:14:43.442Z,99.99
2019-05-01T04:15:43.460Z,99.99
2019-05-01T04:16:43.485Z,99.99
2019-05-01T04:17:43.503Z,99.99
2019-05-01T04:20:43.558Z,99.99
2019-05-01T04:21:43.582Z,99.99
2019-05-01T04:22:43.600Z,99.99
2019-05-01T04:24:43.634Z,99.99
2019-05-01T04:25:43.650Z,99.99
2019-05-01T04:26:43.673Z,99.99
2019-05-01T04:27:43.692Z,99.99
2019-05-01T04:28:43.722Z,99.99
2019-05-01T04:29:43.732Z,99.99
2019-05-01T04:30:43.750Z,99.99
2019-05-01T04:31:58.435Z,99.99
2019-05-01T04:32:54.374Z,99.99
2019-05-01T04:33:43.811Z,99.99
2019-05-01T04:34:43.840Z,99.99
2019-05-01T04:35:43.849Z,99.99
2019-05-01T04:36:43.873Z,99.99
2019-05-01T04:37:43.896Z,99.99
2019-05-01T04:38:43.911Z,99.99
2019-05-01T04:39:43.929Z,99.99
2019-05-01T04:40:43.948Z,99.99
2019-05-01T04:41:43.969Z,99.99
2019-05-01T04:42:43.992Z,99.99
2019-05-01T04:43:44.010Z,99.99
2019-05-01T04:44:44.029Z,99.99
2019-05-01T04:45:44.048Z,99.99
2019-05-01T04:46:44.069Z,99.99
2019-05-01T04:47:58.751Z,99.99
2019-05-01T04:48:44.106Z,99.99
2019-05-01T04:49:44.129Z,99.99
2019-05-01T04:50:44.145Z,99.99
2019-05-01T04:51:44.166Z,99.99
2019-05-01T04:52:44.186Z,99.99
2019-05-01T04:53:44.201Z,99.99
2019-05-01T04:55:44.244Z,99.99
2019-05-01T04:56:44.260Z,99.99
2019-05-01T04:57:44.284Z,99.99
2019-05-01T04:58:44.302Z,99.99
2019-05-01T04:59:44.427Z,99.99
2019-05-01T05:01:44.362Z,99.99
2019-05-01T05:02:44.380Z,99.99
2019-05-01T05:03:59.063Z,99.99
2019-05-01T05:04:44.419Z,99.99
2019-05-01T05:05:44.459Z,99.99
2019-05-01T05:06:44.460Z,99.99
2019-05-01T05:07:44.476Z,99.99
2019-05-01T05:08:44.498Z,99.99
2019-05-01T05:09:44.520Z,99.99
2019-05-01T05:10:44.538Z,99.99
2019-05-01T05:11:44.556Z,99.99
2019-05-01T05:12:44.577Z,99.99
2019-05-01T05:13:46.926Z,99.99
2019-05-01T05:14:44.618Z,99.99
2019-05-01T05:15:44.644Z,99.99
2019-05-01T05:16:44.656Z,99.99
2019-05-01T05:17:44.676Z,99.99
2019-05-01T05:18:44.697Z,99.99
2019-05-01T05:19:59.380Z,99.99
2019-05-01T05:20:44.739Z,99.99
2019-05-01T05:21:44.758Z,99.99
2019-05-01T05:22:44.775Z,99.99
2019-05-01T05:23:44.796Z,99.99
2019-05-01T05:24:44.815Z,99.99
2019-05-01T05:25:44.835Z,99.99
2019-05-01T05:26:44.862Z,99.99
2019-05-01T05:27:44.876Z,99.99
2019-05-01T05:28:44.896Z,99.99
2019-05-01T05:29:44.915Z,99.99
2019-05-01T05:31:44.956Z,99.99
2019-05-01T05:32:44.977Z,99.99
2019-05-01T05:33:44.998Z,99.99
2019-05-01T05:34:59.681Z,99.99
2019-05-01T05:35:45.038Z,99.99
2019-05-01T05:36:45.059Z,99.99
2019-05-01T05:37:45.141Z,99.99
2019-05-01T05:38:45.100Z,99.99
2019-05-01T05:39:45.119Z,99.99
2019-05-01T05:40:45.140Z,99.99
2019-05-01T05:41:45.158Z,99.99
2019-05-01T05:42:45.181Z,99.99
2019-05-01T05:43:45.202Z,99.99
2019-05-01T05:44:45.221Z,99.99
2019-05-01T05:45:45.243Z,99.99
2019-05-01T05:46:45.264Z,99.99
2019-05-01T05:47:45.286Z,99.99
2019-05-01T05:48:45.307Z,99.99
2019-05-01T05:49:45.328Z,99.99
2019-05-01T05:50:45.348Z,99.99
2019-05-01T05:51:45.372Z,99.99
2019-05-01T05:52:45.141Z,99.99
2019-05-01T05:53:45.413Z,99.99
2019-05-01T05:54:45.435Z,97.23
2019-05-01T05:55:45.459Z,95.41
2019-05-01T05:56:45.496Z,95.27
2019-05-01T05:57:45.506Z,93.21
2019-05-01T05:58:45.538Z,91.72
2019-05-01T05:59:45.547Z,89.72
2019-05-01T06:00:45.571Z,89.72
2019-05-01T06:01:45.602Z,91.63
2019-05-01T06:02:45.618Z,93.88
2019-05-01T06:04:45.664Z,95.07
2019-05-01T06:05:45.687Z,95.46
2019-05-01T06:07:00.375Z,95.84
2019-05-01T06:07:45.738Z,96.27
2019-05-01T06:08:45.758Z,97.23
2019-05-01T06:09:48.433Z,97.8
2019-05-01T06:10:45.806Z,98.28
2019-05-01T06:11:45.827Z,97.37
2019-05-01T06:13:45.870Z,98.28
2019-05-01T06:14:45.895Z,98.66
2019-05-01T06:15:48.902Z,99.99
2019-05-01T06:16:52.017Z,99.99
2019-05-01T06:17:45.960Z,99.99
2019-05-01T06:18:45.983Z,99.99
2019-05-01T06:19:49.587Z,99.99
2019-05-01T06:21:46.049Z,99.99
2019-05-01T06:23:00.741Z,99.99
2019-05-01T06:23:46.093Z,99.99
2019-05-01T06:24:46.117Z,99.99
2019-05-01T06:25:46.143Z,99.99
2019-05-01T06:26:46.159Z,99.99
2019-05-01T06:27:49.198Z,99.99
2019-05-01T06:28:46.203Z,99.99
2019-05-01T06:29:46.225Z,99.99
2019-05-01T06:30:49.410Z,99.99
2019-05-01T06:31:46.266Z,99.99
2019-05-01T06:32:46.291Z,99.99
2019-05-01T06:33:48.545Z,99.99
2019-05-01T06:34:46.331Z,99.99
2019-05-01T06:35:46.357Z,99.99
2019-05-01T06:36:51.632Z,99.99
2019-05-01T06:37:46.395Z,99.99
2019-05-01T06:39:01.082Z,99.99
2019-05-01T06:39:50.554Z,99.99
2019-05-01T06:40:46.458Z,99.33
2019-05-01T06:41:46.500Z,97.18
2019-05-01T06:42:50.041Z,96.42
2019-05-01T06:43:46.524Z,96.13
2019-05-01T06:44:46.823Z,96.61
2019-05-01T06:45:51.561Z,96.99
2019-05-01T06:46:46.589Z,96.46
2019-05-01T06:47:46.706Z,97.52
2019-05-01T06:49:46.654Z,98.28
2019-05-01T06:51:53.067Z,98.18
2019-05-01T06:52:46.728Z,98.08
2019-05-01T06:53:46.741Z,99.18
2019-05-01T06:55:01.428Z,99.99
2019-05-01T06:55:46.790Z,99.99
2019-05-01T06:56:46.816Z,99.99
2019-05-01T06:57:48.101Z,99.99
2019-05-01T06:58:50.950Z,99.66
2019-05-01T06:59:46.882Z,99.95
2019-05-01T07:00:46.893Z,99.85
2019-05-01T07:01:46.917Z,99.99
2019-05-01T07:02:46.936Z,99.37
2019-05-01T07:04:03.328Z,99.57
2019-05-01T07:04:46.978Z,99.08
2019-05-01T07:05:54.228Z,98.71
2019-05-01T07:06:47.021Z,98.13
2019-05-01T07:07:53.076Z,98.71
2019-05-01T07:08:47.065Z,98.9
2019-05-01T07:10:01.752Z,98.8
2019-05-01T07:10:48.340Z,99.37
2019-05-01T07:11:52.567Z,99.37
2019-05-01T07:12:47.151Z,99.99
2019-05-01T07:13:47.172Z,99.85
2019-05-01T07:14:52.808Z,99.99
2019-05-01T07:15:47.214Z,99.57
2019-05-01T07:16:47.238Z,99.95
2019-05-01T07:17:50.355Z,99.85
2019-05-01T07:18:47.278Z,99.76
2019-05-01T07:19:47.299Z,99.99
2019-05-01T07:20:53.501Z,99.99
2019-05-01T07:21:47.347Z,99.99
2019-05-01T07:22:47.365Z,99.99
2019-05-01T07:23:52.128Z,99.99
2019-05-01T07:24:49.054Z,99.99
2019-05-01T07:25:47.426Z,99.99
2019-05-01T07:26:50.428Z,99.99
2019-05-01T07:27:47.467Z,99.99
2019-05-01T07:28:47.489Z,99.99
2019-05-01T07:29:49.100Z,99.99
2019-05-01T07:30:49.773Z,99.99
2019-05-01T07:31:47.551Z,99.99
2019-05-01T07:32:47.577Z,99.99
2019-05-01T07:33:51.131Z,99.99
2019-05-01T07:34:48.970Z,99.99
2019-05-01T07:35:47.637Z,99.99
2019-05-01T07:36:50.091Z,99.99
2019-05-01T07:37:47.676Z,99.18
2019-05-01T07:38:47.698Z,98.61
2019-05-01T07:39:52.459Z,98.85
2019-05-01T07:40:47.741Z,97.42
2019-05-01T07:42:02.431Z,96.46
2019-05-01T07:42:50.757Z,96.46
2019-05-01T07:43:47.807Z,96.66
2019-05-01T07:44:47.827Z,96.03
2019-05-01T07:45:47.865Z,96.94
2019-05-01T07:46:54.002Z,97.23
2019-05-01T07:47:47.889Z,96.51
2019-05-01T07:48:47.910Z,96.7
2019-05-01T07:49:54.894Z,95.56
2019-05-01T07:50:47.953Z,95.03
2019-05-01T07:51:47.976Z,96.08
2019-05-01T07:52:52.143Z,96.56
2019-05-01T07:53:48.018Z,96.84
2019-05-01T07:54:49.684Z,96.08
2019-05-01T07:55:52.624Z,95.89
2019-05-01T07:56:48.080Z,95.03
2019-05-01T07:58:02.767Z,93.79
2019-05-01T07:58:51.914Z,93.98
2019-05-01T07:59:48.143Z,94.51
2019-05-01T08:00:48.186Z,93.93
2019-05-01T08:01:54.341Z,93.12
2019-05-01T08:02:48.207Z,94.07
2019-05-01T08:03:48.232Z,94.84
2019-05-01T08:04:48.255Z,94.84
2019-05-01T08:05:49.293Z,93.74
2019-05-01T08:06:51.991Z,92.88
2019-05-01T08:07:48.316Z,91.97
2019-05-01T08:08:48.341Z,91.59
2019-05-01T08:09:52.596Z,90.87
2019-05-01T08:10:48.381Z,90.58
2019-05-01T08:11:48.410Z,90.05
2019-05-01T08:12:48.427Z,89.19
2019-05-01T08:14:07.414Z,90.44
2019-05-01T08:14:52.306Z,87.99
2019-05-01T08:15:48.493Z,86.21
2019-05-01T08:16:48.616Z,85.54
2019-05-01T08:17:53.118Z,83.58
2019-05-01T08:18:48.564Z,81.07
2019-05-01T08:19:48.585Z,79.67
2019-05-01T08:20:52.900Z,76.25
2019-05-01T08:21:48.632Z,74.94
2019-05-01T08:22:48.653Z,74.27
2019-05-01T08:23:49.789Z,74.27
2019-05-01T08:24:48.703Z,72.54
2019-05-01T08:25:48.729Z,72.92
2019-05-01T08:26:48.518Z,73.31
2019-05-01T08:27:50.903Z,74.43
2019-05-01T08:28:48.800Z,75
2019-05-01T08:30:03.491Z,76.02
2019-05-01T08:30:52.663Z,76.69
2019-05-01T08:31:48.875Z,76.69
2019-05-01T08:32:48.901Z,77.33
2019-05-01T08:33:52.388Z,75.35
2019-05-01T08:34:55.614Z,77.04
2019-05-01T08:35:48.975Z,78.88
2019-05-01T08:36:49.905Z,80.27
2019-05-01T08:37:49.023Z,78.78
2019-05-01T08:40:55.402Z,79.01
2019-05-01T08:41:49.118Z,78.25
2019-05-01T08:42:49.144Z,78.25
2019-05-01T08:43:53.876Z,78.44
2019-05-01T08:45:04.952Z,78.34
2019-05-01T08:45:49.217Z,78.96
2019-05-01T08:46:53.334Z,77.04
2019-05-01T08:47:49.264Z,75.98
2019-05-01T08:48:49.290Z,77.42
2019-05-01T08:49:53.050Z,77.23
2019-05-01T08:50:49.362Z,76.84
2019-05-01T08:51:49.364Z,75.82
2019-05-01T08:52:51.018Z,75.15
2019-05-01T08:53:52.641Z,75.54
2019-05-01T08:55:49.581Z,75.06
2019-05-01T08:56:52.866Z,75.02
2019-05-01T08:57:49.508Z,75.5
2019-05-01T08:58:52.077Z,75.02
2019-05-01T08:59:49.556Z,75.31
2019-05-01T09:00:49.581Z,75.79
2019-05-01T09:02:08.771Z,75.12
2019-05-01T09:02:49.629Z,75.21
2019-05-01T09:05:01.524Z,73.72
2019-05-01T09:05:52.130Z,74.1
2019-05-01T09:06:49.728Z,72.89
2019-05-01T09:07:55.831Z,71.93
2019-05-01T09:08:49.776Z,72.02
2019-05-01T09:09:50.025Z,72.22
2019-05-01T09:10:54.607Z,72.41
2019-05-01T09:11:49.850Z,71.29
2019-05-01T09:12:52.164Z,71.93
2019-05-01T09:13:49.898Z,72.18
2019-05-01T09:14:51.240Z,73.62
2019-05-01T09:15:50.790Z,73.24
2019-05-01T09:17:04.637Z,73.77
2019-05-01T09:17:49.996Z,74.19
2019-05-01T09:18:50.270Z,73.04
2019-05-01T09:20:50.072Z,72.69
2019-05-01T09:21:50.093Z,71.93
2019-05-01T09:22:50.122Z,70.52
2019-05-01T09:24:50.165Z,71.35
2019-05-01T09:25:50.191Z,71.25
2019-05-01T09:26:52.739Z,71.55
2019-05-01T09:27:50.240Z,71.35
2019-05-01T09:28:50.269Z,70.68
2019-05-01T09:29:54.225Z,71.35
2019-05-01T09:31:50.336Z,72.05
2019-05-01T09:33:05.027Z,73.2
2019-05-01T09:33:50.385Z,72.47
2019-05-01T09:34:50.409Z,71.98
2019-05-01T09:35:50.434Z,71.51
2019-05-01T09:36:50.460Z,70.64
2019-05-01T09:37:50.480Z,70.74
2019-05-01T09:38:52.501Z,70.07
2019-05-01T09:39:50.532Z,70.93
2019-05-01T09:40:50.554Z,70.84
2019-05-01T09:41:51.316Z,70.74
2019-05-01T09:42:54.579Z,69.53
2019-05-01T09:43:50.625Z,70.93
2019-05-01T09:44:50.655Z,69.68
2019-05-01T09:45:50.673Z,70.93
2019-05-01T09:46:50.699Z,71.28
2019-05-01T09:47:50.722Z,71.22
2019-05-01T09:49:05.409Z,69.05
2019-05-01T09:49:53.802Z,69.37
2019-05-01T09:50:50.796Z,68.6
2019-05-01T09:51:51.732Z,68.7
2019-05-01T09:52:50.841Z,68.12
2019-05-01T09:53:50.866Z,67.68
2019-05-01T09:54:50.891Z,67.77
2019-05-01T09:55:50.914Z,65.5
2019-05-01T09:56:50.940Z,64.86
2019-05-01T09:57:50.974Z,65.78
2019-05-01T09:58:50.986Z,65.01
2019-05-01T09:59:51.009Z,64.63
2019-05-01T10:00:55.014Z,65.01
2019-05-01T10:02:51.088Z,62.48
2019-05-01T10:03:54.401Z,62.8
2019-05-01T10:05:06.621Z,62.51
2019-05-01T10:05:51.161Z,61.65
2019-05-01T10:06:54.893Z,62.8
2019-05-01T10:07:51.210Z,61.07
2019-05-01T10:08:51.239Z,61.9
2019-05-01T10:09:54.711Z,60.87
2019-05-01T10:10:51.292Z,61.55
2019-05-01T10:11:51.309Z,61.1
2019-05-01T10:13:53.608Z,58.75
2019-05-01T10:14:51.383Z,57.78
2019-05-01T10:15:51.409Z,56.81
2019-05-01T10:17:51.460Z,57.1
2019-05-01T10:18:51.486Z,56.52
2019-05-01T10:20:06.178Z,57.59
2019-05-01T10:20:51.538Z,56.81
2019-05-01T10:21:51.313Z,56.91
2019-05-01T10:22:51.589Z,57.62
2019-05-01T10:23:54.397Z,59.3
2019-05-01T10:24:51.640Z,59.56
2019-05-01T10:26:55.040Z,61.84
2019-05-01T10:27:52.993Z,62.13
2019-05-01T10:28:52.645Z,63.15
2019-05-01T10:29:51.820Z,64.02
2019-05-01T10:31:51.571Z,64.69
2019-05-01T10:32:57.731Z,64.6
2019-05-01T10:33:51.872Z,65.27
2019-05-01T10:34:51.902Z,64.73
2019-05-01T10:35:51.922Z,64.66
2019-05-01T10:36:54.437Z,63.89
2019-05-01T10:37:51.973Z,64.66
2019-05-01T10:38:52.002Z,63.31
2019-05-01T10:39:55.973Z,63.79
2019-05-01T10:40:52.049Z,63.51
2019-05-01T10:41:52.176Z,62.74
2019-05-01T10:42:52.101Z,63.22
2019-05-01T10:44:52.150Z,61.29
2019-05-01T10:45:52.177Z,61.46
2019-05-01T10:46:51.952Z,62.8
2019-05-01T10:48:52.253Z,62.41
2019-05-01T10:49:52.276Z,63.25
2019-05-01T10:50:52.301Z,63.54
2019-05-01T10:52:13.833Z,62.8
2019-05-01T10:52:52.351Z,63.64
2019-05-01T10:53:52.376Z,62.51
2019-05-01T10:54:52.421Z,62.51
2019-05-01T10:55:52.204Z,63.48
2019-05-01T10:56:52.201Z,62.48
2019-05-01T10:57:52.475Z,63.45
2019-05-01T10:58:52.499Z,63.57
2019-05-01T10:59:52.525Z,64.02
2019-05-01T11:00:52.557Z,64.4
2019-05-01T11:01:52.578Z,64.63
2019-05-01T11:02:52.598Z,61.74
2019-05-01T11:04:52.653Z,63.6
2019-05-01T11:06:52.703Z,63.35
2019-05-01T11:08:07.389Z,63.38
2019-05-01T11:08:52.749Z,63.83
2019-05-01T11:09:52.771Z,64.6
2019-05-01T11:10:52.799Z,64.89
2019-05-01T11:11:52.820Z,65.56
2019-05-01T11:13:52.872Z,65.37
2019-05-01T11:14:52.894Z,64.89
2019-05-01T11:15:52.918Z,64.92
2019-05-01T11:16:52.941Z,64.73
2019-05-01T11:17:52.966Z,65.11
2019-05-01T11:18:52.992Z,63.31
2019-05-01T11:19:53.023Z,62.83
2019-05-01T11:21:52.819Z,63.12
2019-05-01T11:22:53.091Z,63.51
2019-05-01T11:24:07.785Z,62.38
2019-05-01T11:24:53.138Z,61.42
2019-05-01T11:25:53.165Z,61.77
2019-05-01T11:26:53.188Z,61.94
2019-05-01T11:27:53.211Z,62.41
2019-05-01T11:28:53.236Z,62.51
2019-05-01T11:29:53.262Z,63.35
2019-05-01T11:30:53.290Z,63.64
2019-05-01T11:31:53.308Z,64.02
2019-05-01T11:32:53.333Z,63.45
2019-05-01T11:33:53.356Z,64.37
2019-05-01T11:34:53.390Z,64.69
2019-05-01T11:35:53.506Z,64.89
2019-05-01T11:36:53.431Z,63.92
2019-05-01T11:37:53.455Z,65.17
2019-05-01T11:38:53.478Z,63.38
2019-05-01T11:40:08.169Z,63.28
2019-05-01T11:40:53.527Z,63.51
2019-05-01T11:41:53.553Z,62.35
2019-05-01T11:42:53.577Z,62.64
2019-05-01T11:43:53.599Z,61.97
2019-05-01T11:44:53.625Z,63.22
2019-05-01T11:45:53.701Z,63.28
2019-05-01T11:46:53.673Z,63.48
2019-05-01T11:47:53.799Z,63.22
2019-05-01T11:48:53.724Z,62.06
2019-05-01T11:49:53.747Z,62.64
2019-05-01T11:50:53.775Z,62.06
2019-05-01T11:51:53.546Z,62.26
2019-05-01T11:52:53.821Z,62.26
2019-05-01T11:53:53.843Z,62.13
2019-05-01T11:55:08.555Z,64.22
2019-05-01T11:55:53.893Z,64.22
2019-05-01T11:56:53.667Z,64.82
2019-05-01T11:58:53.965Z,61.68
2019-05-01T11:59:53.990Z,61.55
2019-05-01T12:00:54.013Z,61.74
2019-05-01T12:01:53.792Z,60.97
2019-05-01T12:02:54.062Z,61.36
2019-05-01T12:03:54.107Z,61.94
2019-05-01T12:04:54.109Z,60.3
2019-05-01T12:05:54.234Z,61
2019-05-01T12:06:54.161Z,61.29
2019-05-01T12:08:54.206Z,60.91
2019-05-01T12:09:54.235Z,60.04
2019-05-01T12:10:54.259Z,60.36
2019-05-01T12:11:54.305Z,59.01
2019-05-01T12:12:54.304Z,59.2
2019-05-01T12:13:54.327Z,60.07
2019-05-01T12:14:54.354Z,59.11
2019-05-01T12:15:54.375Z,59.59
2019-05-01T12:16:54.404Z,59.97
2019-05-01T12:17:54.426Z,60.07
2019-05-01T12:18:54.450Z,60.07
2019-05-01T12:19:54.476Z,59.3
2019-05-01T12:20:54.500Z,59.56
2019-05-01T12:21:54.521Z,59.59
2019-05-01T12:22:54.544Z,60.33
2019-05-01T12:23:54.575Z,61.36
2019-05-01T12:24:54.596Z,62.38
2019-05-01T12:25:54.618Z,62.48
2019-05-01T12:27:09.308Z,61.84
2019-05-01T12:27:54.666Z,61.55
2019-05-01T12:28:54.694Z,61.74
2019-05-01T12:29:54.721Z,62.58
2019-05-01T12:30:54.744Z,62.61
2019-05-01T12:31:54.771Z,62.51
2019-05-01T12:32:54.797Z,62.71
2019-05-01T12:33:54.814Z,62.41
2019-05-01T12:34:54.837Z,62.71
2019-05-01T12:35:54.860Z,63.67
2019-05-01T12:36:54.636Z,62.61
2019-05-01T12:37:57.840Z,63.48
2019-05-01T12:38:54.931Z,63.28
2019-05-01T12:39:54.959Z,63.38
2019-05-01T12:41:55.012Z,64.6
2019-05-01T12:43:12.129Z,65.17
2019-05-01T12:43:55.052Z,65.46
2019-05-01T12:44:55.077Z,64.4
2019-05-01T12:45:55.100Z,64.69
2019-05-01T12:46:55.123Z,64.89
2019-05-01T12:47:55.159Z,64.79
2019-05-01T12:48:55.175Z,64.98
2019-05-01T12:49:55.196Z,65.2
2019-05-01T12:50:55.220Z,63.79
2019-05-01T12:51:55.244Z,64.82
2019-05-01T12:53:55.294Z,64.79
2019-05-01T12:55:55.346Z,65.17
2019-05-01T12:56:55.363Z,65.56
2019-05-01T12:57:55.389Z,65.56
2019-05-01T12:59:10.075Z,66.97
2019-05-01T13:00:08.062Z,66.87
2019-05-01T13:00:55.466Z,67.54
2019-05-01T13:01:55.490Z,67
2019-05-01T13:02:55.508Z,66.58
2019-05-01T13:03:55.530Z,66.68
2019-05-01T13:04:55.558Z,67.25
2019-05-01T13:05:55.335Z,67.54
2019-05-01T13:06:55.603Z,67.64
2019-05-01T13:07:55.628Z,66.87
2019-05-01T13:08:55.652Z,67.54
2019-05-01T13:09:55.673Z,67.74
2019-05-01T13:10:55.698Z,67.83
2019-05-01T13:12:55.746Z,67.54
2019-05-01T13:13:55.774Z,67.07
2019-05-01T13:15:10.457Z,66.87
2019-05-01T13:15:55.824Z,66.52
2019-05-01T13:16:55.840Z,66
2019-05-01T13:17:55.864Z,66.77
2019-05-01T13:18:55.888Z,66.49
2019-05-01T13:19:55.915Z,66.49
2019-05-01T13:20:55.940Z,66.58
2019-05-01T13:21:55.960Z,66.46
2019-05-01T13:22:55.983Z,66.68
2019-05-01T13:23:56.112Z,67.03
2019-05-01T13:24:56.032Z,67.9
2019-05-01T13:25:56.059Z,67.22
2019-05-01T13:26:56.083Z,66.93
2019-05-01T13:27:56.106Z,67.13
2019-05-01T13:28:56.126Z,66.68
2019-05-01T13:30:10.815Z,65.91
2019-05-01T13:30:56.176Z,66.1
2019-05-01T13:31:56.205Z,66.55
2019-05-01T13:32:56.220Z,66
2019-05-01T13:33:56.243Z,66.49
2019-05-01T13:34:56.277Z,65.14
2019-05-01T13:35:56.292Z,65.43
2019-05-01T13:37:05.521Z,65.53
2019-05-01T13:37:56.339Z,65.56